sensor_id;sensor_type;location;lat;lon;timestamp;P1;durP1;ratioP1;P2;durP2;ratioP2
61025;SDS011;46911;32.650;-16.902;2023-10-13T00:01:50;18.55;;;6.05;;
61025;SDS011;46911;32.650;-16.902;2023-10-13T00:03:55;17.90;;;5.60;;
61025;SDS011;46911;32.650;-16.902;2023-10-13T00:05:57;13.85;;;6.10;;
61025;SDS011;46911;32.650;-16.902;2023-10-13T00:08:03;16.65;;;5.30;;
61025;SDS011;46911;32.650;-16.902;2023-10-13T00:10:04;22.45;;;4.75;;
61025;SDS011;46911;32.650;-16.902;2023-10-13T00:12:07;12.70;;;4.90;;
61025;SDS011;46911;32.650;-16.902;2023-10-13T00:14:13;13.65;;;4.68;;
61025;SDS011;46911;32.650;-16.902;2023-10-13T00:16:21;8.25;;;4.65;;
61025;SDS011;46911;32.650;-16.902;2023-10-13T00:18:29;10.70;;;4.10;;
61025;SDS011;46911;32.650;-16.902;2023-10-13T00:20:44;15.15;;;4.40;;
61025;SDS011;46911;32.650;-16.902;2023-10-13T00:22:50;18.80;;;4.72;;
61025;SDS011;46911;32.650;-16.902;2023-10-13T00:24:54;12.05;;;4.53;;
61025;SDS011;46911;32.650;-16.902;2023-10-13T00:26:59;13.05;;;5.10;;
61025;SDS011;46911;32.650;-16.902;2023-10-13T00:29:02;12.75;;;4.28;;
61025;SDS011;46911;32.650;-16.902;2023-10-13T00:31:32;17.77;;;5.00;;
61025;SDS011;46911;32.650;-16.902;2023-10-13T00:33:42;10.45;;;4.78;;
61025;SDS011;46911;32.650;-16.902;2023-10-13T00:35:46;10.10;;;4.55;;
61025;SDS011;46911;32.650;-16.902;2023-10-13T00:37:57;13.45;;;4.78;;
61025;SDS011;46911;32.650;-16.902;2023-10-13T00:40:06;14.50;;;4.82;;
61025;SDS011;46911;32.650;-16.902;2023-10-13T00:42:21;20.25;;;5.57;;
61025;SDS011;46911;32.650;-16.902;2023-10-13T00:44:43;13.82;;;6.13;;
61025;SDS011;46911;32.650;-16.902;2023-10-13T00:46:45;13.60;;;5.90;;
61025;SDS011;46911;32.650;-16.902;2023-10-13T00:48:48;17.52;;;5.60;;
61025;SDS011;46911;32.650;-16.902;2023-10-13T00:50:52;11.10;;;5.60;;
61025;SDS011;46911;32.650;-16.902;2023-10-13T00:52:59;13.52;;;5.95;;
61025;SDS011;46911;32.650;-16.902;2023-10-13T00:55:01;20.27;;;5.80;;
61025;SDS011;46911;32.650;-16.902;2023-10-13T00:57:08;20.70;;;6.25;;
61025;SDS011;46911;32.650;-16.902;2023-10-13T00:59:29;10.10;;;4.55;;
61025;SDS011;46911;32.650;-16.902;2023-10-13T01:01:36;7.82;;;3.72;;
61025;SDS011;46911;32.650;-16.902;2023-10-13T01:03:42;12.50;;;4.95;;
61025;SDS011;46911;32.650;-16.902;2023-10-13T01:05:48;9.67;;;3.37;;
61025;SDS011;46911;32.650;-16.902;2023-10-13T01:07:54;10.55;;;3.40;;
61025;SDS011;46911;32.650;-16.902;2023-10-13T01:10:01;11.45;;;3.20;;
61025;SDS011;46911;32.650;-16.902;2023-10-13T01:12:05;8.10;;;3.58;;
61025;SDS011;46911;32.650;-16.902;2023-10-13T01:14:09;10.23;;;3.33;;
61025;SDS011;46911;32.650;-16.902;2023-10-13T01:16:20;11.38;;;3.08;;
61025;SDS011;46911;32.650;-16.902;2023-10-13T01:18:21;10.20;;;2.90;;
61025;SDS011;46911;32.650;-16.902;2023-10-13T01:20:22;9.88;;;2.85;;
61025;SDS011;46911;32.650;-16.902;2023-10-13T01:22:29;7.22;;;3.30;;
61025;SDS011;46911;32.650;-16.902;2023-10-13T01:24:32;10.35;;;3.13;;
61025;SDS011;46911;32.650;-16.902;2023-10-13T01:26:36;12.02;;;3.25;;
61025;SDS011;46911;32.650;-16.902;2023-10-13T01:28:39;10.13;;;3.15;;
61025;SDS011;46911;32.650;-16.902;2023-10-13T01:30:51;15.43;;;3.72;;
61025;SDS011;46911;32.650;-16.902;2023-10-13T01:32:54;10.60;;;4.45;;
61025;SDS011;46911;32.650;-16.902;2023-10-13T01:35:00;15.43;;;4.35;;
61025;SDS011;46911;32.650;-16.902;2023-10-13T01:37:06;11.50;;;3.80;;
61025;SDS011;46911;32.650;-16.902;2023-10-13T01:39:10;15.35;;;4.90;;
61025;SDS011;46911;32.650;-16.902;2023-10-13T01:41:18;11.05;;;4.50;;
61025;SDS011;46911;32.650;-16.902;2023-10-13T01:43:19;11.65;;;4.50;;
61025;SDS011;46911;32.650;-16.902;2023-10-13T01:45:22;8.43;;;3.90;;
61025;SDS011;46911;32.650;-16.902;2023-10-13T01:47:29;10.80;;;4.73;;
61025;SDS011;46911;32.650;-16.902;2023-10-13T01:49:30;14.77;;;4.20;;
61025;SDS011;46911;32.650;-16.902;2023-10-13T01:51:41;7.68;;;4.15;;
61025;SDS011;46911;32.650;-16.902;2023-10-13T01:53:43;14.95;;;3.80;;
61025;SDS011;46911;32.650;-16.902;2023-10-13T01:55:44;10.77;;;3.05;;
61025;SDS011;46911;32.650;-16.902;2023-10-13T01:57:45;9.90;;;4.15;;
61025;SDS011;46911;32.650;-16.902;2023-10-13T01:59:49;22.98;;;4.05;;
61025;SDS011;46911;32.650;-16.902;2023-10-13T02:01:50;7.28;;;3.40;;
61025;SDS011;46911;32.650;-16.902;2023-10-13T02:04:04;11.80;;;3.65;;
61025;SDS011;46911;32.650;-16.902;2023-10-13T02:06:08;15.82;;;3.30;;
61025;SDS011;46911;32.650;-16.902;2023-10-13T02:08:17;8.52;;;3.13;;
61025;SDS011;46911;32.650;-16.902;2023-10-13T02:10:29;10.57;;;3.10;;
61025;SDS011;46911;32.650;-16.902;2023-10-13T02:12:31;7.78;;;3.42;;
61025;SDS011;46911;32.650;-16.902;2023-10-13T02:14:49;14.15;;;3.30;;
61025;SDS011;46911;32.650;-16.902;2023-10-13T02:16:51;12.88;;;3.30;;
61025;SDS011;46911;32.650;-16.902;2023-10-13T02:18:56;17.02;;;3.95;;
61025;SDS011;46911;32.650;-16.902;2023-10-13T02:21:04;11.57;;;3.92;;
61025;SDS011;46911;32.650;-16.902;2023-10-13T02:23:08;12.40;;;4.00;;
61025;SDS011;46911;32.650;-16.902;2023-10-13T02:25:15;17.73;;;4.82;;
61025;SDS011;46911;32.650;-16.902;2023-10-13T02:27:45;8.23;;;4.25;;
61025;SDS011;46911;32.650;-16.902;2023-10-13T02:30:00;7.43;;;4.68;;
61025;SDS011;46911;32.650;-16.902;2023-10-13T02:32:04;10.80;;;5.47;;
61025;SDS011;46911;32.650;-16.902;2023-10-13T02:34:05;10.45;;;5.47;;
61025;SDS011;46911;32.650;-16.902;2023-10-13T02:36:10;15.82;;;4.63;;
61025;SDS011;46911;32.650;-16.902;2023-10-13T02:38:25;12.18;;;4.68;;
61025;SDS011;46911;32.650;-16.902;2023-10-13T02:40:41;13.50;;;4.88;;
61025;SDS011;46911;32.650;-16.902;2023-10-13T02:42:44;13.40;;;4.40;;
61025;SDS011;46911;32.650;-16.902;2023-10-13T02:44:45;21.63;;;4.93;;
61025;SDS011;46911;32.650;-16.902;2023-10-13T02:46:48;11.05;;;4.80;;
61025;SDS011;46911;32.650;-16.902;2023-10-13T02:48:55;12.30;;;4.38;;
61025;SDS011;46911;32.650;-16.902;2023-10-13T02:50:58;19.98;;;5.00;;
61025;SDS011;46911;32.650;-16.902;2023-10-13T02:53:15;9.60;;;4.25;;
61025;SDS011;46911;32.650;-16.902;2023-10-13T02:55:19;15.88;;;5.28;;
61025;SDS011;46911;32.650;-16.902;2023-10-13T02:57:26;16.95;;;5.32;;
61025;SDS011;46911;32.650;-16.902;2023-10-13T02:59:28;17.13;;;6.00;;
61025;SDS011;46911;32.650;-16.902;2023-10-13T03:01:39;11.38;;;4.78;;
61025;SDS011;46911;32.650;-16.902;2023-10-13T03:03:43;10.88;;;4.82;;
61025;SDS011;46911;32.650;-16.902;2023-10-13T03:05:58;13.88;;;5.03;;
61025;SDS011;46911;32.650;-16.902;2023-10-13T03:08:00;14.82;;;5.07;;
61025;SDS011;46911;32.650;-16.902;2023-10-13T03:10:04;10.55;;;4.70;;
61025;SDS011;46911;32.650;-16.902;2023-10-13T03:12:12;11.27;;;4.88;;
61025;SDS011;46911;32.650;-16.902;2023-10-13T03:14:13;20.00;;;5.75;;
61025;SDS011;46911;32.650;-16.902;2023-10-13T03:16:36;12.57;;;5.38;;
61025;SDS011;46911;32.650;-16.902;2023-10-13T03:18:37;16.13;;;5.22;;
61025;SDS011;46911;32.650;-16.902;2023-10-13T03:20:38;20.92;;;6.47;;
61025;SDS011;46911;32.650;-16.902;2023-10-13T03:22:45;10.48;;;5.78;;
61025;SDS011;46911;32.650;-16.902;2023-10-13T03:24:49;15.65;;;5.65;;
61025;SDS011;46911;32.650;-16.902;2023-10-13T03:26:57;13.80;;;6.18;;
61025;SDS011;46911;32.650;-16.902;2023-10-13T03:29:08;11.98;;;6.15;;
61025;SDS011;46911;32.650;-16.902;2023-10-13T03:31:13;17.02;;;6.30;;
61025;SDS011;46911;32.650;-16.902;2023-10-13T03:33:18;25.25;;;6.50;;
61025;SDS011;46911;32.650;-16.902;2023-10-13T03:35:29;18.58;;;6.18;;
61025;SDS011;46911;32.650;-16.902;2023-10-13T03:37:38;18.55;;;5.95;;
61025;SDS011;46911;32.650;-16.902;2023-10-13T03:39:39;14.93;;;5.50;;
61025;SDS011;46911;32.650;-16.902;2023-10-13T03:41:45;9.35;;;5.18;;
61025;SDS011;46911;32.650;-16.902;2023-10-13T03:43:54;13.77;;;5.97;;
61025;SDS011;46911;32.650;-16.902;2023-10-13T03:46:08;19.08;;;5.63;;
61025;SDS011;46911;32.650;-16.902;2023-10-13T03:48:15;11.82;;;5.88;;
61025;SDS011;46911;32.650;-16.902;2023-10-13T03:50:25;18.90;;;5.95;;
61025;SDS011;46911;32.650;-16.902;2023-10-13T03:52:36;11.98;;;5.65;;
61025;SDS011;46911;32.650;-16.902;2023-10-13T03:54:39;19.75;;;5.93;;
61025;SDS011;46911;32.650;-16.902;2023-10-13T03:56:41;17.52;;;5.50;;
61025;SDS011;46911;32.650;-16.902;2023-10-13T03:58:44;21.17;;;5.97;;
61025;SDS011;46911;32.650;-16.902;2023-10-13T04:00:49;15.52;;;5.10;;
61025;SDS011;46911;32.650;-16.902;2023-10-13T04:02:50;19.35;;;5.38;;
61025;SDS011;46911;32.650;-16.902;2023-10-13T04:05:03;18.08;;;5.25;;
61025;SDS011;46911;32.650;-16.902;2023-10-13T04:07:26;13.18;;;4.47;;
61025;SDS011;46911;32.650;-16.902;2023-10-13T04:09:39;13.48;;;4.30;;
61025;SDS011;46911;32.650;-16.902;2023-10-13T04:11:49;15.00;;;4.60;;
61025;SDS011;46911;32.650;-16.902;2023-10-13T04:14:14;10.45;;;4.90;;
61025;SDS011;46911;32.650;-16.902;2023-10-13T04:16:43;17.20;;;5.82;;
61025;SDS011;46911;32.650;-16.902;2023-10-13T04:18:54;13.95;;;5.00;;
61025;SDS011;46911;32.650;-16.902;2023-10-13T04:20:55;14.23;;;5.43;;
61025;SDS011;46911;32.650;-16.902;2023-10-13T04:23:08;11.23;;;5.00;;
61025;SDS011;46911;32.650;-16.902;2023-10-13T04:25:25;10.25;;;4.32;;
61025;SDS011;46911;32.650;-16.902;2023-10-13T04:27:42;12.70;;;5.28;;
61025;SDS011;46911;32.650;-16.902;2023-10-13T04:30:07;16.38;;;5.43;;
61025;SDS011;46911;32.650;-16.902;2023-10-13T04:32:12;11.52;;;5.30;;
61025;SDS011;46911;32.650;-16.902;2023-10-13T04:34:15;12.90;;;4.75;;
61025;SDS011;46911;32.650;-16.902;2023-10-13T04:36:20;24.52;;;5.22;;
61025;SDS011;46911;32.650;-16.902;2023-10-13T04:38:27;16.77;;;5.55;;
61025;SDS011;46911;32.650;-16.902;2023-10-13T04:40:40;11.05;;;5.15;;
61025;SDS011;46911;32.650;-16.902;2023-10-13T04:42:59;20.17;;;5.28;;
61025;SDS011;46911;32.650;-16.902;2023-10-13T04:45:09;14.07;;;4.63;;
61025;SDS011;46911;32.650;-16.902;2023-10-13T04:47:36;15.13;;;4.80;;
61025;SDS011;46911;32.650;-16.902;2023-10-13T04:49:43;16.70;;;5.32;;
61025;SDS011;46911;32.650;-16.902;2023-10-13T04:51:48;9.52;;;4.38;;
61025;SDS011;46911;32.650;-16.902;2023-10-13T04:54:03;8.85;;;3.85;;
61025;SDS011;46911;32.650;-16.902;2023-10-13T04:56:11;13.38;;;4.30;;
61025;SDS011;46911;32.650;-16.902;2023-10-13T04:58:35;10.98;;;4.57;;
61025;SDS011;46911;32.650;-16.902;2023-10-13T05:01:02;19.67;;;4.45;;
61025;SDS011;46911;32.650;-16.902;2023-10-13T05:03:23;12.27;;;3.35;;
61025;SDS011;46911;32.650;-16.902;2023-10-13T05:05:50;8.90;;;3.45;;
61025;SDS011;46911;32.650;-16.902;2023-10-13T05:08:14;13.50;;;4.05;;
61025;SDS011;46911;32.650;-16.902;2023-10-13T05:10:36;7.07;;;2.67;;
61025;SDS011;46911;32.650;-16.902;2023-10-13T05:12:56;10.45;;;3.33;;
61025;SDS011;46911;32.650;-16.902;2023-10-13T05:15:15;10.30;;;3.00;;
61025;SDS011;46911;32.650;-16.902;2023-10-13T05:17:34;10.30;;;3.15;;
61025;SDS011;46911;32.650;-16.902;2023-10-13T05:19:55;15.88;;;3.35;;
61025;SDS011;46911;32.650;-16.902;2023-10-13T05:22:16;9.10;;;3.22;;
61025;SDS011;46911;32.650;-16.902;2023-10-13T05:24:44;8.60;;;4.00;;
61025;SDS011;46911;32.650;-16.902;2023-10-13T05:27:05;11.38;;;4.25;;
61025;SDS011;46911;32.650;-16.902;2023-10-13T05:29:24;19.73;;;6.45;;
61025;SDS011;46911;32.650;-16.902;2023-10-13T05:31:43;25.65;;;6.68;;
61025;SDS011;46911;32.650;-16.902;2023-10-13T05:34:03;29.58;;;6.90;;
61025;SDS011;46911;32.650;-16.902;2023-10-13T05:36:24;33.58;;;7.05;;
61025;SDS011;46911;32.650;-16.902;2023-10-13T05:38:44;36.92;;;6.97;;
61025;SDS011;46911;32.650;-16.902;2023-10-13T05:41:04;19.42;;;5.35;;
61025;SDS011;46911;32.650;-16.902;2023-10-13T05:43:26;35.15;;;5.47;;
61025;SDS011;46911;32.650;-16.902;2023-10-13T05:45:46;21.67;;;5.90;;
61025;SDS011;46911;32.650;-16.902;2023-10-13T05:48:22;25.55;;;5.57;;
61025;SDS011;46911;32.650;-16.902;2023-10-13T05:50:43;24.75;;;5.20;;
61025;SDS011;46911;32.650;-16.902;2023-10-13T05:53:02;19.55;;;4.72;;
61025;SDS011;46911;32.650;-16.902;2023-10-13T05:55:14;12.20;;;3.70;;
61025;SDS011;46911;32.650;-16.902;2023-10-13T05:57:33;22.73;;;4.10;;
61025;SDS011;46911;32.650;-16.902;2023-10-13T05:59:58;13.80;;;4.38;;
61025;SDS011;46911;32.650;-16.902;2023-10-13T06:02:21;12.57;;;4.55;;
61025;SDS011;46911;32.650;-16.902;2023-10-13T06:04:41;15.25;;;4.70;;
61025;SDS011;46911;32.650;-16.902;2023-10-13T06:07:03;17.13;;;3.90;;
61025;SDS011;46911;32.650;-16.902;2023-10-13T06:09:23;9.48;;;3.70;;
61025;SDS011;46911;32.650;-16.902;2023-10-13T06:11:47;14.27;;;4.57;;
61025;SDS011;46911;32.650;-16.902;2023-10-13T06:14:06;13.10;;;4.60;;
61025;SDS011;46911;32.650;-16.902;2023-10-13T06:16:28;22.02;;;4.88;;
61025;SDS011;46911;32.650;-16.902;2023-10-13T06:18:48;11.88;;;5.22;;
61025;SDS011;46911;32.650;-16.902;2023-10-13T06:21:10;10.60;;;4.45;;
61025;SDS011;46911;32.650;-16.902;2023-10-13T06:23:32;26.00;;;5.22;;
61025;SDS011;46911;32.650;-16.902;2023-10-13T06:28:14;13.18;;;4.15;;
61025;SDS011;46911;32.650;-16.902;2023-10-13T06:30:33;19.23;;;4.38;;
61025;SDS011;46911;32.650;-16.902;2023-10-13T06:32:38;16.88;;;5.13;;
61025;SDS011;46911;32.650;-16.902;2023-10-13T06:34:40;18.27;;;4.60;;
61025;SDS011;46911;32.650;-16.902;2023-10-13T06:36:51;15.40;;;4.35;;
61025;SDS011;46911;32.650;-16.902;2023-10-13T06:38:54;10.60;;;4.25;;
61025;SDS011;46911;32.650;-16.902;2023-10-13T06:40:55;16.58;;;4.50;;
61025;SDS011;46911;32.650;-16.902;2023-10-13T06:42:59;13.15;;;4.68;;
61025;SDS011;46911;32.650;-16.902;2023-10-13T06:45:21;12.82;;;4.20;;
61025;SDS011;46911;32.650;-16.902;2023-10-13T06:47:22;14.07;;;4.30;;
61025;SDS011;46911;32.650;-16.902;2023-10-13T06:49:24;23.90;;;3.90;;
61025;SDS011;46911;32.650;-16.902;2023-10-13T06:51:26;16.55;;;3.80;;
61025;SDS011;46911;32.650;-16.902;2023-10-13T06:53:31;18.77;;;4.07;;
61025;SDS011;46911;32.650;-16.902;2023-10-13T06:55:37;16.17;;;4.85;;
61025;SDS011;46911;32.650;-16.902;2023-10-13T06:57:40;17.55;;;4.60;;
61025;SDS011;46911;32.650;-16.902;2023-10-13T06:59:44;23.02;;;4.90;;
61025;SDS011;46911;32.650;-16.902;2023-10-13T07:01:45;17.83;;;3.88;;
61025;SDS011;46911;32.650;-16.902;2023-10-13T07:03:48;25.75;;;5.22;;
61025;SDS011;46911;32.650;-16.902;2023-10-13T07:05:53;20.92;;;5.10;;
61025;SDS011;46911;32.650;-16.902;2023-10-13T07:07:57;26.63;;;4.20;;
61025;SDS011;46911;32.650;-16.902;2023-10-13T07:10:10;12.95;;;3.85;;
61025;SDS011;46911;32.650;-16.902;2023-10-13T07:12:13;21.93;;;4.30;;
61025;SDS011;46911;32.650;-16.902;2023-10-13T07:14:28;11.85;;;4.50;;
61025;SDS011;46911;32.650;-16.902;2023-10-13T07:16:31;23.77;;;5.18;;
61025;SDS011;46911;32.650;-16.902;2023-10-13T07:18:35;14.65;;;4.80;;
61025;SDS011;46911;32.650;-16.902;2023-10-13T07:20:40;27.27;;;5.03;;
61025;SDS011;46911;32.650;-16.902;2023-10-13T07:22:46;21.33;;;4.25;;
61025;SDS011;46911;32.650;-16.902;2023-10-13T07:25:09;29.50;;;5.47;;
61025;SDS011;46911;32.650;-16.902;2023-10-13T07:27:20;24.00;;;5.90;;
61025;SDS011;46911;32.650;-16.902;2023-10-13T07:29:26;24.83;;;4.80;;
61025;SDS011;46911;32.650;-16.902;2023-10-13T07:31:30;24.70;;;3.95;;
61025;SDS011;46911;32.650;-16.902;2023-10-13T07:33:33;13.27;;;4.28;;
61025;SDS011;46911;32.650;-16.902;2023-10-13T07:35:35;17.45;;;4.75;;
61025;SDS011;46911;32.650;-16.902;2023-10-13T07:37:46;24.70;;;5.55;;
61025;SDS011;46911;32.650;-16.902;2023-10-13T07:39:52;37.55;;;6.75;;
61025;SDS011;46911;32.650;-16.902;2023-10-13T07:41:53;52.63;;;8.35;;
61025;SDS011;46911;32.650;-16.902;2023-10-13T07:44:06;48.13;;;6.60;;
61025;SDS011;46911;32.650;-16.902;2023-10-13T07:46:07;40.33;;;7.15;;
61025;SDS011;46911;32.650;-16.902;2023-10-13T07:48:12;31.80;;;6.78;;
61025;SDS011;46911;32.650;-16.902;2023-10-13T07:50:22;36.33;;;6.78;;
61025;SDS011;46911;32.650;-16.902;2023-10-13T07:52:25;35.28;;;6.47;;
61025;SDS011;46911;32.650;-16.902;2023-10-13T07:54:47;29.60;;;5.80;;
61025;SDS011;46911;32.650;-16.902;2023-10-13T07:56:49;43.17;;;8.05;;
61025;SDS011;46911;32.650;-16.902;2023-10-13T07:58:51;26.30;;;5.65;;
61025;SDS011;46911;32.650;-16.902;2023-10-13T08:01:00;31.98;;;5.95;;
61025;SDS011;46911;32.650;-16.902;2023-10-13T08:03:10;28.98;;;6.60;;
61025;SDS011;46911;32.650;-16.902;2023-10-13T08:05:18;30.60;;;6.22;;
61025;SDS011;46911;32.650;-16.902;2023-10-13T08:07:44;25.50;;;7.47;;
61025;SDS011;46911;32.650;-16.902;2023-10-13T08:09:49;36.00;;;7.47;;
61025;SDS011;46911;32.650;-16.902;2023-10-13T08:11:52;32.15;;;6.38;;
61025;SDS011;46911;32.650;-16.902;2023-10-13T08:13:59;36.65;;;6.47;;
61025;SDS011;46911;32.650;-16.902;2023-10-13T08:16:33;31.70;;;5.60;;
61025;SDS011;46911;32.650;-16.902;2023-10-13T08:18:53;24.83;;;6.65;;
61025;SDS011;46911;32.650;-16.902;2023-10-13T08:21:02;20.70;;;6.10;;
61025;SDS011;46911;32.650;-16.902;2023-10-13T08:23:06;64.28;;;7.53;;
61025;SDS011;46911;32.650;-16.902;2023-10-13T08:25:37;57.85;;;7.25;;
61025;SDS011;46911;32.650;-16.902;2023-10-13T08:28:13;33.35;;;8.07;;
61025;SDS011;46911;32.650;-16.902;2023-10-13T08:30:33;80.22;;;8.35;;
61025;SDS011;46911;32.650;-16.902;2023-10-13T08:32:42;44.00;;;7.65;;
61025;SDS011;46911;32.650;-16.902;2023-10-13T08:35:00;33.28;;;7.05;;
61025;SDS011;46911;32.650;-16.902;2023-10-13T08:37:10;28.08;;;6.70;;
61025;SDS011;46911;32.650;-16.902;2023-10-13T08:39:23;40.03;;;6.87;;
61025;SDS011;46911;32.650;-16.902;2023-10-13T08:41:42;30.73;;;6.25;;
61025;SDS011;46911;32.650;-16.902;2023-10-13T08:44:05;38.03;;;7.20;;
61025;SDS011;46911;32.650;-16.902;2023-10-13T08:46:10;41.60;;;6.65;;
61025;SDS011;46911;32.650;-16.902;2023-10-13T08:48:25;28.13;;;7.80;;
61025;SDS011;46911;32.650;-16.902;2023-10-13T08:50:32;34.15;;;7.55;;
61025;SDS011;46911;32.650;-16.902;2023-10-13T08:52:52;31.65;;;6.85;;
61025;SDS011;46911;32.650;-16.902;2023-10-13T08:55:02;59.05;;;8.05;;
61025;SDS011;46911;32.650;-16.902;2023-10-13T08:57:13;28.25;;;5.70;;
61025;SDS011;46911;32.650;-16.902;2023-10-13T08:59:41;46.33;;;6.70;;
61025;SDS011;46911;32.650;-16.902;2023-10-13T09:01:56;43.22;;;8.48;;
61025;SDS011;46911;32.650;-16.902;2023-10-13T09:04:16;42.80;;;7.75;;
61025;SDS011;46911;32.650;-16.902;2023-10-13T09:06:22;30.17;;;6.93;;
61025;SDS011;46911;32.650;-16.902;2023-10-13T09:08:27;33.67;;;7.38;;
61025;SDS011;46911;32.650;-16.902;2023-10-13T09:10:47;31.85;;;7.03;;
61025;SDS011;46911;32.650;-16.902;2023-10-13T09:13:08;60.90;;;9.68;;
61025;SDS011;46911;32.650;-16.902;2023-10-13T09:15:11;40.80;;;7.22;;
61025;SDS011;46911;32.650;-16.902;2023-10-13T09:17:15;36.50;;;7.10;;
61025;SDS011;46911;32.650;-16.902;2023-10-13T09:19:18;40.85;;;6.03;;
61025;SDS011;46911;32.650;-16.902;2023-10-13T09:21:21;22.02;;;5.45;;
61025;SDS011;46911;32.650;-16.902;2023-10-13T09:23:46;25.52;;;5.28;;
61025;SDS011;46911;32.650;-16.902;2023-10-13T09:25:49;35.42;;;5.75;;
61025;SDS011;46911;32.650;-16.902;2023-10-13T09:28:12;25.02;;;5.20;;
61025;SDS011;46911;32.650;-16.902;2023-10-13T09:30:22;20.13;;;5.15;;
61025;SDS011;46911;32.650;-16.902;2023-10-13T09:32:24;23.42;;;4.95;;
61025;SDS011;46911;32.650;-16.902;2023-10-13T09:34:29;25.02;;;6.65;;
61025;SDS011;46911;32.650;-16.902;2023-10-13T09:36:36;23.05;;;5.20;;
61025;SDS011;46911;32.650;-16.902;2023-10-13T09:38:42;34.75;;;4.78;;
61025;SDS011;46911;32.650;-16.902;2023-10-13T09:41:09;15.57;;;4.43;;
61025;SDS011;46911;32.650;-16.902;2023-10-13T09:43:19;16.95;;;4.45;;
61025;SDS011;46911;32.650;-16.902;2023-10-13T09:45:27;15.10;;;4.50;;
61025;SDS011;46911;32.650;-16.902;2023-10-13T09:47:36;14.88;;;4.30;;
61025;SDS011;46911;32.650;-16.902;2023-10-13T09:49:39;13.95;;;4.53;;
61025;SDS011;46911;32.650;-16.902;2023-10-13T09:51:54;25.50;;;5.75;;
61025;SDS011;46911;32.650;-16.902;2023-10-13T09:56:21;24.15;;;4.60;;
61025;SDS011;46911;32.650;-16.902;2023-10-13T09:58:27;19.98;;;4.38;;
61025;SDS011;46911;32.650;-16.902;2023-10-13T10:00:40;21.38;;;4.88;;
61025;SDS011;46911;32.650;-16.902;2023-10-13T10:02:49;35.88;;;4.43;;
61025;SDS011;46911;32.650;-16.902;2023-10-13T10:04:57;16.50;;;4.37;;
61025;SDS011;46911;32.650;-16.902;2023-10-13T10:07:27;18.85;;;4.90;;
61025;SDS011;46911;32.650;-16.902;2023-10-13T10:09:35;12.93;;;4.30;;
61025;SDS011;46911;32.650;-16.902;2023-10-13T10:16:04;34.63;;;6.43;;
61025;SDS011;46911;32.650;-16.902;2023-10-13T10:18:18;37.78;;;5.22;;
61025;SDS011;46911;32.650;-16.902;2023-10-13T10:20:31;21.67;;;4.60;;
61025;SDS011;46911;32.650;-16.902;2023-10-13T10:23:00;22.13;;;5.38;;
61025;SDS011;46911;32.650;-16.902;2023-10-13T10:25:01;12.80;;;4.78;;
61025;SDS011;46911;32.650;-16.902;2023-10-13T10:27:05;18.40;;;4.82;;
61025;SDS011;46911;32.650;-16.902;2023-10-13T10:29:11;18.27;;;5.20;;
61025;SDS011;46911;32.650;-16.902;2023-10-13T10:31:14;17.60;;;4.95;;
61025;SDS011;46911;32.650;-16.902;2023-10-13T10:33:19;15.65;;;4.13;;
61025;SDS011;46911;32.650;-16.902;2023-10-13T10:35:34;13.35;;;4.25;;
61025;SDS011;46911;32.650;-16.902;2023-10-13T10:37:35;10.65;;;3.03;;
61025;SDS011;46911;32.650;-16.902;2023-10-13T10:39:37;17.30;;;4.30;;
61025;SDS011;46911;32.650;-16.902;2023-10-13T10:41:56;8.55;;;3.03;;
61025;SDS011;46911;32.650;-16.902;2023-10-13T10:44:01;13.55;;;4.03;;
61025;SDS011;46911;32.650;-16.902;2023-10-13T10:48:13;10.18;;;3.40;;
61025;SDS011;46911;32.650;-16.902;2023-10-13T10:50:25;17.67;;;4.40;;
61025;SDS011;46911;32.650;-16.902;2023-10-13T10:52:35;11.15;;;3.90;;
61025;SDS011;46911;32.650;-16.902;2023-10-13T10:54:39;9.43;;;3.10;;
61025;SDS011;46911;32.650;-16.902;2023-10-13T10:56:45;12.82;;;3.08;;
61025;SDS011;46911;32.650;-16.902;2023-10-13T10:58:56;8.93;;;2.63;;
61025;SDS011;46911;32.650;-16.902;2023-10-13T11:01:04;10.77;;;3.28;;
61025;SDS011;46911;32.650;-16.902;2023-10-13T11:03:13;9.88;;;3.13;;
61025;SDS011;46911;32.650;-16.902;2023-10-13T11:05:17;12.98;;;3.08;;
61025;SDS011;46911;32.650;-16.902;2023-10-13T11:07:22;14.10;;;3.15;;
61025;SDS011;46911;32.650;-16.902;2023-10-13T11:09:28;8.88;;;3.00;;
61025;SDS011;46911;32.650;-16.902;2023-10-13T11:11:32;14.02;;;3.00;;
61025;SDS011;46911;32.650;-16.902;2023-10-13T11:13:42;8.57;;;2.60;;
61025;SDS011;46911;32.650;-16.902;2023-10-13T11:17:57;7.50;;;2.55;;
61025;SDS011;46911;32.650;-16.902;2023-10-13T11:20:07;9.80;;;2.95;;
61025;SDS011;46911;32.650;-16.902;2023-10-13T11:22:36;7.90;;;3.38;;
61025;SDS011;46911;32.650;-16.902;2023-10-13T11:24:48;8.13;;;2.97;;
61025;SDS011;46911;32.650;-16.902;2023-10-13T11:26:53;12.40;;;2.92;;
61025;SDS011;46911;32.650;-16.902;2023-10-13T11:28:55;7.55;;;2.90;;
61025;SDS011;46911;32.650;-16.902;2023-10-13T11:30:56;9.82;;;3.67;;
61025;SDS011;46911;32.650;-16.902;2023-10-13T11:33:11;12.85;;;3.30;;
61025;SDS011;46911;32.650;-16.902;2023-10-13T11:35:18;10.65;;;3.28;;
61025;SDS011;46911;32.650;-16.902;2023-10-13T11:37:27;15.95;;;3.60;;
61025;SDS011;46911;32.650;-16.902;2023-10-13T11:39:41;12.60;;;3.58;;
61025;SDS011;46911;32.650;-16.902;2023-10-13T11:41:46;10.52;;;4.05;;
61025;SDS011;46911;32.650;-16.902;2023-10-13T11:43:54;13.13;;;3.13;;
61025;SDS011;46911;32.650;-16.902;2023-10-13T11:46:12;9.38;;;3.13;;
61025;SDS011;46911;32.650;-16.902;2023-10-13T11:48:15;12.27;;;3.75;;
61025;SDS011;46911;32.650;-16.902;2023-10-13T11:50:16;11.57;;;3.72;;
61025;SDS011;46911;32.650;-16.902;2023-10-13T11:52:32;8.32;;;2.85;;
61025;SDS011;46911;32.650;-16.902;2023-10-13T11:54:33;15.25;;;2.95;;
61025;SDS011;46911;32.650;-16.902;2023-10-13T11:56:36;15.50;;;3.50;;
61025;SDS011;46911;32.650;-16.902;2023-10-13T11:58:39;10.40;;;3.53;;
61025;SDS011;46911;32.650;-16.902;2023-10-13T12:00:41;10.95;;;3.50;;
61025;SDS011;46911;32.650;-16.902;2023-10-13T12:03:02;10.57;;;3.38;;
61025;SDS011;46911;32.650;-16.902;2023-10-13T12:05:24;21.85;;;4.53;;
61025;SDS011;46911;32.650;-16.902;2023-10-13T12:07:37;8.98;;;3.50;;
61025;SDS011;46911;32.650;-16.902;2023-10-13T12:09:49;12.13;;;3.38;;
61025;SDS011;46911;32.650;-16.902;2023-10-13T12:12:00;12.70;;;2.80;;
61025;SDS011;46911;32.650;-16.902;2023-10-13T12:14:03;8.75;;;2.40;;
61025;SDS011;46911;32.650;-16.902;2023-10-13T12:16:17;19.17;;;5.93;;
61025;SDS011;46911;32.650;-16.902;2023-10-13T12:18:19;12.77;;;4.28;;
61025;SDS011;46911;32.650;-16.902;2023-10-13T12:20:26;9.57;;;3.38;;
61025;SDS011;46911;32.650;-16.902;2023-10-13T12:22:33;15.35;;;3.80;;
61025;SDS011;46911;32.650;-16.902;2023-10-13T12:24:39;20.80;;;3.58;;
61025;SDS011;46911;32.650;-16.902;2023-10-13T12:26:43;14.60;;;3.40;;
61025;SDS011;46911;32.650;-16.902;2023-10-13T12:28:43;8.57;;;2.88;;
61025;SDS011;46911;32.650;-16.902;2023-10-13T12:30:52;7.60;;;2.83;;
61025;SDS011;46911;32.650;-16.902;2023-10-13T12:33:02;10.02;;;3.88;;
61025;SDS011;46911;32.650;-16.902;2023-10-13T12:35:09;8.07;;;2.85;;
61025;SDS011;46911;32.650;-16.902;2023-10-13T12:37:10;7.50;;;2.83;;
61025;SDS011;46911;32.650;-16.902;2023-10-13T12:39:36;12.20;;;3.00;;
61025;SDS011;46911;32.650;-16.902;2023-10-13T12:41:55;13.68;;;3.58;;
61025;SDS011;46911;32.650;-16.902;2023-10-13T12:44:16;10.95;;;4.80;;
61025;SDS011;46911;32.650;-16.902;2023-10-13T12:46:36;7.50;;;3.20;;